createdAt,value
2022-10-04T00:02:47.497Z,99.90
2022-10-04T00:07:26.459Z,99.90
2022-10-04T00:11:46.241Z,99.90
2022-10-04T00:16:03.680Z,99.90
2022-10-04T00:20:45.663Z,99.90
2022-10-04T00:25:09.946Z,99.90
2022-10-04T00:29:27.104Z,99.90
2022-10-04T00:33:46.615Z,99.90
2022-10-04T00:38:14.754Z,99.90
2022-10-04T00:42:55.429Z,99.90
2022-10-04T00:47:31.687Z,99.90
2022-10-04T00:51:59.504Z,99.90
2022-10-04T00:56:41.550Z,99.90
2022-10-04T01:01:01.192Z,99.90
2022-10-04T01:11:22.687Z,99.90
2022-10-04T01:15:45.129Z,99.90
2022-10-04T01:20:04.132Z,99.90
2022-10-04T01:24:21.706Z,99.90
2022-10-04T01:28:39.623Z,99.90
2022-10-04T01:32:56.820Z,99.90
2022-10-04T01:37:14.538Z,99.90
2022-10-04T01:41:46.314Z,99.90
2022-10-04T01:46:10.142Z,99.90
2022-10-04T01:50:30.179Z,99.90
2022-10-04T01:54:58.589Z,99.90
2022-10-04T01:59:30.648Z,99.90
2022-10-04T02:04:22.326Z,99.90
2022-10-04T02:08:47.054Z,99.90
2022-10-04T02:13:09.476Z,99.90
2022-10-04T02:17:30.035Z,99.90
2022-10-04T02:21:48.568Z,99.90
2022-10-04T02:26:07.385Z,99.90
2022-10-04T02:30:25.030Z,99.90
2022-10-04T02:34:42.425Z,99.90
2022-10-04T02:39:05.054Z,99.90
2022-10-04T02:43:43.775Z,99.90
2022-10-04T02:48:11.287Z,99.90
2022-10-04T02:52:42.332Z,99.90
2022-10-04T02:57:00.756Z,99.90
2022-10-04T03:01:26.738Z,99.90
2022-10-04T03:05:47.394Z,99.90
2022-10-04T03:10:12.431Z,99.90
2022-10-04T03:14:30.033Z,99.90
2022-10-04T03:18:49.606Z,99.90
2022-10-04T03:23:09.049Z,99.90
2022-10-04T03:27:33.889Z,99.90
2022-10-04T03:31:58.107Z,99.90
2022-10-04T03:36:18.793Z,99.90
2022-10-04T03:40:38.598Z,99.90
2022-10-04T03:45:00.900Z,99.90
2022-10-04T03:49:29.386Z,99.90
2022-10-04T03:53:50.014Z,99.90
2022-10-04T03:58:09.368Z,99.90
2022-10-04T04:02:26.625Z,99.90
2022-10-04T04:07:05.405Z,99.90
2022-10-04T04:11:27.759Z,99.90
2022-10-04T04:15:45.675Z,99.90
2022-10-04T04:20:08.058Z,99.90
2022-10-04T04:24:32.166Z,99.90
2022-10-04T04:28:57.366Z,99.90
2022-10-04T04:33:26.163Z,99.90
2022-10-04T04:37:43.532Z,99.90
2022-10-04T04:42:05.907Z,99.90
2022-10-04T04:46:27.470Z,99.90
2022-10-04T04:50:53.026Z,99.90
2022-10-04T04:55:33.997Z,99.90
2022-10-04T05:00:00.860Z,99.90
2022-10-04T05:04:21.700Z,99.90
2022-10-04T05:08:41.550Z,99.90
2022-10-04T05:13:00.996Z,99.90
2022-10-04T05:17:33.568Z,99.90
2022-10-04T05:21:54.026Z,99.90
2022-10-04T05:26:13.166Z,99.90
2022-10-04T05:30:55.133Z,99.90
2022-10-04T05:35:18.083Z,99.90
2022-10-04T05:39:43.543Z,99.90
2022-10-04T05:44:02.359Z,99.90
2022-10-04T05:48:19.608Z,99.90
2022-10-04T05:52:38.866Z,99.90
2022-10-04T05:57:44.723Z,99.90
2022-10-04T06:02:24.029Z,99.90
2022-10-04T06:07:12.535Z,99.90
2022-10-04T06:12:06.987Z,99.90
2022-10-04T06:16:50.211Z,99.90
2022-10-04T06:21:27.389Z,99.90
2022-10-04T06:25:49.761Z,99.90
2022-10-04T06:30:14.387Z,99.90
2022-10-04T06:34:37.338Z,99.90
2022-10-04T06:39:22.551Z,99.90
2022-10-04T06:43:57.751Z,99.90
2022-10-04T06:48:29.976Z,99.90
2022-10-04T06:53:23.851Z,99.90
2022-10-04T06:58:09.520Z,99.90
2022-10-04T07:02:32.332Z,99.90
2022-10-04T07:07:46.507Z,99.90
2022-10-04T07:12:08.579Z,99.90
2022-10-04T07:16:34.435Z,99.90
2022-10-04T07:21:00.618Z,99.90
2022-10-04T07:25:30.528Z,99.90
2022-10-04T07:29:57.799Z,99.90
2022-10-04T07:34:21.258Z,99.90
2022-10-04T07:38:47.346Z,99.90
2022-10-04T07:43:14.606Z,99.90
2022-10-04T07:47:32.693Z,99.90
2022-10-04T07:52:11.474Z,99.90
2022-10-04T07:56:45.171Z,99.90
2022-10-04T08:01:05.160Z,99.90
2022-10-04T08:05:29.286Z,99.90
2022-10-04T08:10:15.758Z,99.90
2022-10-04T08:14:51.764Z,99.90
2022-10-04T08:19:36.207Z,99.90
2022-10-04T08:24:08.536Z,99.90
2022-10-04T08:29:11.686Z,99.90
2022-10-04T08:33:50.985Z,99.90
2022-10-04T08:38:53.320Z,99.90
2022-10-04T08:44:01.262Z,99.90
2022-10-04T08:48:45.257Z,99.90
2022-10-04T08:53:28.401Z,99.90
2022-10-04T08:57:57.837Z,99.90
2022-10-04T09:02:23.663Z,99.90
2022-10-04T09:07:13.751Z,99.90
2022-10-04T09:12:03.966Z,99.90
2022-10-04T09:16:42.256Z,99.90
2022-10-04T09:21:10.174Z,99.90
2022-10-04T09:25:56.528Z,99.90
2022-10-04T09:30:25.002Z,99.90
2022-10-04T09:35:00.154Z,99.90
2022-10-04T09:39:54.461Z,99.90
2022-10-04T09:44:22.059Z,99.90
2022-10-04T09:48:45.694Z,99.90
2022-10-04T09:53:21.191Z,99.90
2022-10-04T09:57:59.700Z,99.90
2022-10-04T10:02:31.750Z,99.90
2022-10-04T10:07:09.557Z,99.90
2022-10-04T10:12:23.943Z,99.90
2022-10-04T10:17:01.333Z,99.90
2022-10-04T10:21:21.297Z,99.90
2022-10-04T10:26:16.734Z,99.90
2022-10-04T10:31:08.561Z,99.90
2022-10-04T10:35:43.379Z,99.90
2022-10-04T10:40:27.021Z,99.90
2022-10-04T10:45:21.695Z,99.90
2022-10-04T10:49:55.202Z,99.90
2022-10-04T10:54:45.603Z,99.90
2022-10-04T10:59:33.387Z,93.90
2022-10-04T11:04:31.455Z,94.50
2022-10-04T11:09:14.216Z,94.10
2022-10-04T11:13:57.171Z,94.60
2022-10-04T11:18:58.782Z,97.20
2022-10-04T11:23:40.290Z,96.50
2022-10-04T11:28:27.303Z,90.10
2022-10-04T11:32:53.512Z,91.30
2022-10-04T11:37:41.332Z,90.00
2022-10-04T11:42:18.113Z,88.80
2022-10-04T11:46:51.636Z,89.90
2022-10-04T11:51:27.781Z,87.40
2022-10-04T11:56:11.970Z,88.90
2022-10-04T12:01:23.175Z,91.00
2022-10-04T12:06:15.117Z,88.60
2022-10-04T12:10:41.328Z,91.70
2022-10-04T12:15:32.833Z,85.00
2022-10-04T12:20:02.215Z,92.10
2022-10-04T12:24:48.747Z,86.60
2022-10-04T12:29:40.152Z,91.30
2022-10-04T12:34:15.113Z,85.10
2022-10-04T12:38:42.530Z,85.50
2022-10-04T12:43:17.691Z,86.20
2022-10-04T12:47:53.110Z,87.30
2022-10-04T12:52:24.655Z,84.40
2022-10-04T12:57:00.093Z,87.20
2022-10-04T13:01:32.097Z,82.70
2022-10-04T13:06:06.018Z,82.10
2022-10-04T13:10:44.380Z,88.20
2022-10-04T13:15:09.108Z,87.20
2022-10-04T13:19:42.243Z,90.50
2022-10-04T13:24:18.069Z,90.20
2022-10-04T13:29:16.324Z,90.00
2022-10-04T13:33:48.143Z,91.70
2022-10-04T13:38:30.533Z,95.10
2022-10-04T13:42:58.886Z,93.70
2022-10-04T13:47:30.855Z,92.40
2022-10-04T13:52:23.060Z,94.80
2022-10-04T13:57:00.393Z,95.90
2022-10-04T14:01:48.701Z,96.30
2022-10-04T14:06:17.843Z,93.20
2022-10-04T14:11:01.289Z,93.50
2022-10-04T14:15:38.244Z,95.30
2022-10-04T14:20:00.438Z,97.20
2022-10-04T14:24:46.538Z,96.60
2022-10-04T14:29:22.662Z,97.50
2022-10-04T14:34:18.782Z,99.30
2022-10-04T14:38:35.955Z,97.70
2022-10-04T14:43:02.347Z,99.90
2022-10-04T14:47:46.922Z,99.90
2022-10-04T14:52:36.696Z,98.90
2022-10-04T14:57:24.102Z,97.10
2022-10-04T15:02:07.265Z,98.60
2022-10-04T15:06:49.020Z,98.40
2022-10-04T15:11:16.826Z,99.20
2022-10-04T15:15:44.138Z,99.90
2022-10-04T15:20:08.082Z,99.60
2022-10-04T15:24:29.028Z,99.70
2022-10-04T15:29:23.734Z,99.20
2022-10-04T15:34:21.195Z,99.90
2022-10-04T15:39:02.928Z,99.90
2022-10-04T15:43:30.207Z,99.90
2022-10-04T15:47:55.874Z,99.90
2022-10-04T15:52:36.446Z,99.90
2022-10-04T15:57:19.489Z,99.90
2022-10-04T16:01:55.095Z,99.90
2022-10-04T16:06:25.728Z,99.90
2022-10-04T16:11:07.024Z,99.90
2022-10-04T16:15:37.963Z,99.90
2022-10-04T16:20:10.027Z,99.90
2022-10-04T16:24:40.043Z,99.90
2022-10-04T16:28:57.251Z,99.90
2022-10-04T16:33:21.112Z,99.90
2022-10-04T16:37:54.850Z,99.90
2022-10-04T16:42:15.693Z,99.90
2022-10-04T16:46:46.216Z,99.90
2022-10-04T16:51:32.500Z,99.90
2022-10-04T16:55:57.460Z,99.90
2022-10-04T17:00:38.410Z,99.90
2022-10-04T17:05:18.246Z,99.90
2022-10-04T17:10:06.591Z,99.90
2022-10-04T17:14:43.368Z,99.90
2022-10-04T17:19:42.529Z,99.90
2022-10-04T17:24:21.387Z,99.90
2022-10-04T17:29:17.526Z,99.90
2022-10-04T17:33:38.460Z,99.90
2022-10-04T17:38:36.894Z,99.90
2022-10-04T17:43:17.674Z,99.90
2022-10-04T17:48:03.228Z,99.90
2022-10-04T17:52:47.130Z,99.90
2022-10-04T17:57:06.810Z,99.90
2022-10-04T18:01:30.193Z,99.90
2022-10-04T18:05:56.823Z,99.90
2022-10-04T18:10:41.192Z,99.90
2022-10-04T18:15:08.490Z,99.90
2022-10-04T18:19:34.473Z,99.90
2022-10-04T18:23:57.907Z,99.90
2022-10-04T18:28:22.769Z,99.90
2022-10-04T18:33:05.295Z,99.90
2022-10-04T18:37:39.237Z,99.90
2022-10-04T18:42:18.345Z,99.90
2022-10-04T18:46:40.536Z,99.90
2022-10-04T18:51:23.341Z,99.90
2022-10-04T18:56:00.009Z,99.90
2022-10-04T19:00:35.995Z,99.90
2022-10-04T19:05:02.040Z,99.90
2022-10-04T19:09:36.715Z,99.90
2022-10-04T19:14:08.588Z,99.90
2022-10-04T19:18:51.926Z,99.90
2022-10-04T19:23:25.980Z,99.90
2022-10-04T19:27:49.769Z,99.90
2022-10-04T19:32:30.278Z,99.90
2022-10-04T19:36:59.929Z,99.90
2022-10-04T19:41:35.773Z,99.90
2022-10-04T19:46:02.225Z,99.90
2022-10-04T19:50:27.047Z,99.90
2022-10-04T19:54:44.277Z,99.90
2022-10-04T19:59:10.340Z,99.90
2022-10-04T20:03:28.577Z,99.90
2022-10-04T20:07:50.009Z,99.90
2022-10-04T20:12:35.371Z,99.90
2022-10-04T20:16:53.257Z,99.90
2022-10-04T20:21:26.384Z,99.90
2022-10-04T20:25:45.604Z,99.90
2022-10-04T20:30:14.287Z,99.90
2022-10-04T20:34:37.397Z,99.90
2022-10-04T20:39:00.992Z,99.90
2022-10-04T20:43:18.397Z,99.90
2022-10-04T20:47:37.189Z,99.90
2022-10-04T20:51:54.392Z,99.90
2022-10-04T20:56:17.307Z,99.90
2022-10-04T21:00:34.932Z,99.90
2022-10-04T21:04:53.603Z,99.90
2022-10-04T21:09:10.796Z,99.90
2022-10-04T21:13:47.124Z,99.90
2022-10-04T21:18:07.192Z,99.90
2022-10-04T21:22:28.805Z,99.90
2022-10-04T21:26:56.824Z,99.90
2022-10-04T21:31:14.068Z,99.90
2022-10-04T21:35:31.262Z,99.90
2022-10-04T21:39:48.593Z,99.90
2022-10-04T21:44:05.720Z,99.90
2022-10-04T21:48:23.406Z,99.90
2022-10-04T21:52:40.699Z,99.90
2022-10-04T21:56:57.954Z,99.90
2022-10-04T22:01:15.218Z,99.90
2022-10-04T22:05:32.543Z,99.90
2022-10-04T22:09:49.917Z,99.90
2022-10-04T22:14:07.150Z,99.90
2022-10-04T22:18:24.425Z,99.90
2022-10-04T22:22:41.595Z,99.90
2022-10-04T22:26:59.405Z,99.90
2022-10-04T22:31:28.921Z,99.90
2022-10-04T22:35:46.111Z,99.90
2022-10-04T22:40:03.650Z,99.90
2022-10-04T22:44:25.062Z,99.90
2022-10-04T22:48:44.668Z,99.90
2022-10-04T22:53:12.644Z,99.90
2022-10-04T22:57:30.708Z,99.90
2022-10-04T23:01:48.386Z,99.90
2022-10-04T23:06:08.111Z,99.90
2022-10-04T23:10:25.273Z,99.90
2022-10-04T23:14:42.609Z,99.90
2022-10-04T23:19:09.695Z,99.90
2022-10-04T23:23:28.570Z,99.90
2022-10-04T23:27:46.069Z,99.90
2022-10-04T23:32:11.884Z,99.90
2022-10-04T23:36:30.142Z,99.90
2022-10-04T23:40:47.482Z,99.90
2022-10-04T23:45:17.870Z,99.90
2022-10-04T23:49:35.843Z,99.90
2022-10-04T23:53:53.126Z,99.90
2022-10-04T23:58:20.354Z,99.90
